Time;durP1;ratioP1;P1;durP2;ratioP2;P2;SDS_P1;SDS_P2;PMS_P1;PMS_P2;Temp;Humidity;BMP_temperature;BMP_pressure;BME280_temperature;BME280_humidity;BME280_pressure;Samples;Min_cycle;Max_cycle;Signal;HPM_P1;HPM_P2
2022/07/06 00:01:22;;;;;;;4.35;1.67;;;17.70;90.30;;;;;;5048106;28;20207;-41
2022/07/06 00:03:49;;;;;;;5.93;2.00;;;17.70;90.30;;;;;;5046275;28;20212;-41
2022/07/06 00:06:23;;;;;;;5.68;2.30;;;17.70;90.40;;;;;;5046498;28;20216;-40
2022/07/06 00:08:52;;;;;;;3.58;1.85;;;17.60;90.40;;;;;;5045837;28;20215;-41
2022/07/06 00:11:23;;;;;;;5.40;1.80;;;17.60;90.40;;;;;;5047471;28;20196;-41
2022/07/06 00:13:53;;;;;;;4.43;1.60;;;17.60;90.40;;;;;;5048958;28;20656;-41
2022/07/06 00:16:23;;;;;;;3.08;1.80;;;17.60;90.50;;;;;;5049760;28;20219;-41
2022/07/06 00:18:51;;;;;;;4.78;1.80;;;17.60;90.60;;;;;;5056973;28;20301;-41
2022/07/06 00:21:21;;;;;;;3.13;2.00;;;17.60;90.60;;;;;;5050749;28;20220;-41
2022/07/06 00:23:48;;;;;;;2.60;1.60;;;17.60;90.70;;;;;;5051798;28;20208;-41
2022/07/06 00:26:15;;;;;;;3.65;1.67;;;17.60;90.60;;;;;;5051258;28;20208;-41
2022/07/06 00:28:42;;;;;;;4.28;1.88;;;17.50;90.60;;;;;;5051545;28;20200;-39
2022/07/06 00:31:10;;;;;;;2.53;1.65;;;17.50;90.60;;;;;;5051214;28;20232;-38
2022/07/06 00:33:37;;;;;;;4.50;2.30;;;17.50;90.60;;;;;;5049203;28;20714;-38
2022/07/06 00:36:05;;;;;;;6.38;1.90;;;17.40;90.60;;;;;;5050707;28;20204;-39
2022/07/06 00:38:35;;;;;;;2.28;1.60;;;17.40;90.70;;;;;;5066224;28;20228;-39
2022/07/06 00:41:04;;;;;;;2.83;1.65;;;17.40;90.80;;;;;;5050240;28;20397;-38
2022/07/06 00:43:49;;;;;;;3.63;1.98;;;17.60;91.10;;;;;;5049824;28;20641;-38
2022/07/06 00:46:16;;;;;;;2.80;1.77;;;17.50;91.10;;;;;;5050532;28;20277;-39
2022/07/06 00:48:44;;;;;;;5.05;1.67;;;17.40;90.90;;;;;;5049755;28;20227;-39
2022/07/06 00:51:15;;;;;;;3.58;1.77;;;17.30;90.90;;;;;;5050677;28;20264;-39
2022/07/06 00:53:42;;;;;;;2.13;1.92;;;17.30;90.90;;;;;;5051116;28;20224;-38
2022/07/06 00:56:10;;;;;;;3.03;1.60;;;17.20;91.00;;;;;;5050853;28;20219;-38
2022/07/06 00:58:37;;;;;;;3.60;1.65;;;17.20;91.30;;;;;;5048661;28;20278;-38
2022/07/06 01:01:05;;;;;;;4.45;2.00;;;17.10;91.00;;;;;;5047843;28;20415;-38
2022/07/06 01:03:32;;;;;;;2.67;1.88;;;17.30;91.30;;;;;;5050330;28;20309;-38
2022/07/06 01:06:02;;;;;;;3.13;1.88;;;17.20;91.30;;;;;;5047832;28;20782;-38
2022/07/06 01:08:30;;;;;;;4.20;1.80;;;17.40;91.40;;;;;;5037195;28;20614;-38
2022/07/06 01:10:57;;;;;;;3.03;1.80;;;17.30;91.30;;;;;;5053705;28;20207;-38
2022/07/06 01:13:26;;;;;;;2.33;1.85;;;17.10;91.30;;;;;;5048806;28;20299;-39
2022/07/06 01:15:54;;;;;;;2.50;1.95;;;17.00;91.30;;;;;;5048071;28;20212;-38
2022/07/06 01:18:21;;;;;;;3.15;1.60;;;16.90;91.20;;;;;;5048215;28;20204;-38
2022/07/06 01:20:49;;;;;;;2.97;1.80;;;16.90;91.30;;;;;;5049742;28;20670;-38
2022/07/06 01:23:16;;;;;;;3.22;2.10;;;16.80;91.20;;;;;;5050028;28;20219;-38
2022/07/06 01:25:46;;;;;;;5.30;2.38;;;16.70;91.10;;;;;;5049154;28;20208;-38
2022/07/06 01:28:13;;;;;;;3.33;2.40;;;16.70;91.10;;;;;;5048044;28;20212;-38
2022/07/06 01:30:40;;;;;;;3.95;1.83;;;16.70;91.20;;;;;;5047607;28;20209;-39
2022/07/06 01:33:07;;;;;;;3.42;1.92;;;16.60;91.20;;;;;;5046466;28;20319;-38
2022/07/06 01:35:36;;;;;;;2.10;1.90;;;16.60;91.20;;;;;;5049077;28;20193;-38
2022/07/06 01:38:06;;;;;;;3.63;1.88;;;16.60;91.20;;;;;;5049616;28;20243;-41
2022/07/06 01:40:35;;;;;;;2.40;1.98;;;16.50;91.10;;;;;;5050736;28;20617;-41
2022/07/06 01:43:03;;;;;;;3.55;2.15;;;16.50;91.20;;;;;;5049583;28;20694;-41
2022/07/06 01:45:33;;;;;;;3.22;1.85;;;16.40;91.20;;;;;;5049225;28;20566;-40
2022/07/06 01:48:04;;;;;;;2.97;1.95;;;16.40;91.30;;;;;;5049099;28;20204;-40
2022/07/06 01:50:32;;;;;;;3.08;1.90;;;16.30;91.50;;;;;;5049323;28;20226;-41
2022/07/06 01:53:02;;;;;;;1.77;1.67;;;16.30;91.20;;;;;;5049306;28;20212;-41
2022/07/06 01:55:34;;;;;;;4.07;2.10;;;16.30;91.30;;;;;;5048723;28;20219;-41
2022/07/06 01:58:01;;;;;;;3.65;2.00;;;16.30;91.30;;;;;;5049490;28;20251;-41
2022/07/06 02:00:29;;;;;;;5.20;2.20;;;16.30;91.30;;;;;;5050002;28;20192;-38
2022/07/06 02:02:56;;;;;;;3.25;2.17;;;16.30;91.30;;;;;;5047009;28;20266;-38
2022/07/06 02:05:25;;;;;;;4.00;2.13;;;16.20;91.30;;;;;;5047190;28;20238;-38
2022/07/06 02:08:00;;;;;;;2.33;2.13;;;16.20;91.40;;;;;;5049490;28;20208;-38
2022/07/06 02:10:27;;;;;;;4.03;2.25;;;16.20;91.50;;;;;;5049640;28;20216;-38
2022/07/06 02:12:56;;;;;;;2.63;2.20;;;16.20;91.50;;;;;;5049151;28;20680;-38
2022/07/06 02:15:24;;;;;;;2.42;2.00;;;16.20;91.50;;;;;;5049263;28;20208;-38
2022/07/06 02:17:51;;;;;;;3.63;2.67;;;16.20;91.50;;;;;;5048578;28;20258;-38
2022/07/06 02:20:18;;;;;;;3.67;2.13;;;16.20;91.60;;;;;;5047486;28;20200;-38
2022/07/06 02:22:45;;;;;;;3.35;2.10;;;16.20;91.60;;;;;;5047909;28;20250;-38
2022/07/06 02:25:13;;;;;;;3.90;2.30;;;16.10;91.50;;;;;;5049336;28;20393;-39
2022/07/06 02:27:40;;;;;;;2.77;2.10;;;16.10;91.50;;;;;;5048774;28;20678;-38
2022/07/06 02:30:07;;;;;;;5.03;2.13;;;16.10;91.60;;;;;;5048376;28;20200;-38
2022/07/06 02:32:35;;;;;;;3.57;1.80;;;16.10;91.80;;;;;;5046800;28;20236;-39
2022/07/06 02:35:02;;;;;;;3.13;2.08;;;16.00;91.70;;;;;;5047963;28;20197;-38
2022/07/06 02:37:29;;;;;;;2.85;2.03;;;16.00;91.70;;;;;;5048798;28;20258;-38
2022/07/06 02:39:56;;;;;;;3.45;1.90;;;15.90;91.80;;;;;;5048991;28;20254;-38
2022/07/06 02:42:24;;;;;;;2.10;1.90;;;15.90;91.70;;;;;;5048374;28;20211;-38
2022/07/06 02:44:54;;;;;;;4.82;2.13;;;15.90;91.70;;;;;;5048372;28;20262;-38
2022/07/06 02:47:21;;;;;;;3.00;2.10;;;15.90;91.80;;;;;;5048029;28;20204;-38
2022/07/06 02:49:52;;;;;;;2.83;2.53;;;15.90;91.80;;;;;;5047589;28;20248;-38
2022/07/06 02:52:19;;;;;;;2.93;1.97;;;15.80;91.80;;;;;;5047374;28;20622;-38
2022/07/06 02:54:51;;;;;;;2.90;1.97;;;15.80;91.90;;;;;;5048284;28;20207;-38
2022/07/06 02:57:19;;;;;;;5.55;2.20;;;15.80;91.80;;;;;;5039782;28;20350;-38
2022/07/06 02:59:49;;;;;;;2.65;2.25;;;15.80;91.80;;;;;;5056587;28;20629;-38
2022/07/06 03:02:17;;;;;;;3.80;2.10;;;15.80;91.80;;;;;;5048230;28;20204;-38
2022/07/06 03:04:44;;;;;;;3.50;2.20;;;15.80;91.80;;;;;;5046814;28;20208;-38
2022/07/06 03:07:14;;;;;;;5.10;2.70;;;15.80;91.90;;;;;;5048881;28;20792;-38
2022/07/06 03:09:44;;;;;;;4.00;2.10;;;15.80;91.90;;;;;;5048176;28;20208;-38
2022/07/06 03:12:11;;;;;;;3.70;2.10;;;15.80;92.00;;;;;;5048129;28;20200;-38
2022/07/06 03:14:41;;;;;;;4.03;2.00;;;15.70;91.90;;;;;;5031240;28;20293;-38
2022/07/06 03:17:09;;;;;;;5.13;2.10;;;15.70;91.90;;;;;;5046566;28;20598;-38
2022/07/06 03:19:36;;;;;;;4.63;2.33;;;15.70;91.90;;;;;;5047455;28;20293;-38
2022/07/06 03:22:06;;;;;;;2.90;2.17;;;15.70;91.90;;;;;;5048272;28;20687;-38
2022/07/06 03:24:35;;;;;;;5.97;2.40;;;15.60;92.00;;;;;;5047178;28;20250;-38
2022/07/06 03:27:05;;;;;;;4.07;2.30;;;15.60;92.00;;;;;;5048112;28;20223;-38
2022/07/06 03:29:32;;;;;;;8.80;2.20;;;15.60;92.00;;;;;;5063913;28;20250;-38
2022/07/06 03:31:59;;;;;;;3.22;2.15;;;15.60;92.00;;;;;;5046907;28;20563;-38
2022/07/06 03:34:29;;;;;;;2.87;2.30;;;15.50;92.10;;;;;;5047056;28;20232;-38
2022/07/06 03:36:56;;;;;;;4.07;2.47;;;15.50;92.20;;;;;;5032064;28;20735;-38
2022/07/06 03:39:23;;;;;;;3.28;2.10;;;15.50;92.10;;;;;;5028368;28;20201;-38
2022/07/06 03:41:51;;;;;;;3.47;2.30;;;15.40;92.10;;;;;;5027596;28;20323;-38
2022/07/06 03:44:20;;;;;;;2.63;2.20;;;15.40;92.00;;;;;;5042300;28;20264;-38
2022/07/06 03:46:48;;;;;;;4.50;2.37;;;15.40;92.00;;;;;;5054731;28;20196;-38
2022/07/06 03:49:17;;;;;;;2.47;2.20;;;15.40;92.10;;;;;;5048709;28;20220;-38
2022/07/06 03:51:46;;;;;;;4.00;2.13;;;15.40;92.10;;;;;;5048562;28;20212;-38
2022/07/06 03:54:18;;;;;;;3.03;2.27;;;15.30;92.10;;;;;;5055627;28;20319;-42
2022/07/06 03:56:46;;;;;;;3.37;2.27;;;15.30;92.20;;;;;;5051678;28;20192;-38
2022/07/06 03:59:14;;;;;;;4.90;2.50;;;15.30;92.10;;;;;;5051595;28;20654;-38
2022/07/06 04:01:41;;;;;;;3.87;2.30;;;15.30;92.20;;;;;;5052040;28;20566;-39
2022/07/06 04:04:08;;;;;;;3.33;2.17;;;15.30;92.20;;;;;;5049997;28;20600;-38
2022/07/06 04:06:36;;;;;;;4.07;2.70;;;15.30;92.20;;;;;;5049608;28;20200;-39
2022/07/06 04:09:03;;;;;;;4.27;2.10;;;15.30;92.20;;;;;;5051682;28;20220;-39
2022/07/06 04:11:30;;;;;;;3.97;2.20;;;15.30;92.40;;;;;;5051547;28;20208;-38
2022/07/06 04:14:00;;;;;;;7.10;2.57;;;15.30;92.30;;;;;;5071857;28;20235;-41
2022/07/06 04:16:27;;;;;;;3.80;2.40;;;15.30;92.40;;;;;;5054118;28;20218;-38
2022/07/06 04:18:54;;;;;;;8.07;2.47;;;15.30;92.40;;;;;;5049064;28;20582;-38
2022/07/06 04:21:21;;;;;;;4.73;2.50;;;15.30;92.40;;;;;;5050087;28;20239;-39
2022/07/06 04:23:54;;;;;;;3.60;2.50;;;15.30;92.40;;;;;;5049843;28;20671;-41
2022/07/06 04:26:21;;;;;;;3.10;2.10;;;15.40;92.50;;;;;;5066088;28;20752;-41
2022/07/06 04:28:48;;;;;;;5.07;2.63;;;15.40;92.50;;;;;;5051542;28;20238;-41
2022/07/06 04:31:15;;;;;;;3.33;2.60;;;15.40;92.60;;;;;;5051180;28;20204;-41
2022/07/06 04:33:45;;;;;;;8.27;3.37;;;15.50;92.60;;;;;;5064423;28;20224;-40
2022/07/06 04:36:14;;;;;;;4.67;2.17;;;15.50;92.60;;;;;;5050723;28;20211;-41
2022/07/06 04:38:42;;;;;;;7.03;2.80;;;15.50;92.60;;;;;;5049827;28;20219;-41
2022/07/06 04:41:11;;;;;;;4.03;2.53;;;15.50;92.70;;;;;;5050381;28;20197;-41
2022/07/06 04:43:45;;;;;;;6.07;2.63;;;15.60;92.70;;;;;;5050458;28;20703;-41
2022/07/06 04:46:12;;;;;;;3.60;2.50;;;15.60;92.70;;;;;;5050946;28;20216;-40
2022/07/06 04:48:44;;;;;;;6.23;2.70;;;15.70;92.80;;;;;;5050245;28;20216;-40
2022/07/06 04:51:11;;;;;;;4.95;2.70;;;15.70;92.80;;;;;;5048172;28;20675;-40
2022/07/06 04:53:41;;;;;;;5.70;3.10;;;15.80;92.90;;;;;;5050060;28;20216;-38
2022/07/06 04:56:08;;;;;;;5.20;2.77;;;15.80;92.90;;;;;;5048514;28;20651;-38
2022/07/06 04:58:35;;;;;;;4.07;3.03;;;15.80;92.90;;;;;;5048970;28;20568;-39
2022/07/06 05:01:05;;;;;;;8.00;3.07;;;15.90;92.90;;;;;;5048890;28;20658;-38
2022/07/06 05:03:40;;;;;;;5.03;2.77;;;16.00;93.10;;;;;;5049493;28;20220;-39
2022/07/06 05:06:08;;;;;;;5.35;2.78;;;16.00;93.10;;;;;;5049264;28;20203;-39
2022/07/06 05:08:35;;;;;;;3.53;2.57;;;16.10;93.10;;;;;;5049963;28;20299;-38
2022/07/06 05:11:02;;;;;;;6.03;2.80;;;16.20;93.20;;;;;;5050314;28;20674;-38
2022/07/06 05:13:30;;;;;;;3.43;2.50;;;16.20;93.20;;;;;;5041410;28;20783;-38
2022/07/06 05:15:59;;;;;;;3.50;2.30;;;16.30;93.20;;;;;;5049849;28;20212;-38
2022/07/06 05:18:27;;;;;;;9.45;3.88;;;16.40;93.20;;;;;;5050596;28;20564;-38
2022/07/06 05:20:57;;;;;;;7.00;2.93;;;16.40;93.20;;;;;;5049547;28;20679;-38
2022/07/06 05:23:25;;;;;;;4.10;2.60;;;16.40;93.30;;;;;;5048914;28;20216;-38
2022/07/06 05:25:52;;;;;;;4.38;2.95;;;16.50;93.20;;;;;;5047234;28;20605;-38
2022/07/06 05:28:19;;;;;;;6.53;3.10;;;16.50;93.30;;;;;;5048889;28;20231;-38
2022/07/06 05:30:47;;;;;;;6.43;2.80;;;16.50;93.30;;;;;;5049813;28;20220;-38
2022/07/06 05:33:14;;;;;;;4.33;3.20;;;16.60;93.40;;;;;;5047699;28;20240;-38
2022/07/06 05:35:42;;;;;;;3.78;2.90;;;16.60;93.50;;;;;;5049013;28;20207;-38
2022/07/06 05:38:21;;;;;;;6.72;3.20;;;16.70;93.50;;;;;;5050461;28;20323;-38
2022/07/06 05:40:49;;;;;;;6.10;2.80;;;16.70;93.60;;;;;;5050330;28;20353;-38
2022/07/06 05:43:18;;;;;;;4.32;2.65;;;16.80;93.70;;;;;;5048801;28;20202;-38
2022/07/06 05:45:46;;;;;;;6.25;2.83;;;16.90;93.70;;;;;;5046662;28;20193;-38
2022/07/06 05:51:01;;;;;;;5.13;3.13;;;16.90;93.70;;;;;;5045445;28;20215;-41
2022/07/06 05:53:28;;;;;;;3.10;2.80;;;17.00;93.70;;;;;;5047481;28;20989;-41
2022/07/06 05:55:58;;;;;;;5.47;3.03;;;17.00;93.70;;;;;;5036838;28;20196;-41
2022/07/06 05:58:25;;;;;;;4.75;3.22;;;17.10;93.80;;;;;;5044629;28;20348;-41
2022/07/06 06:00:53;;;;;;;8.70;3.00;;;17.10;93.80;;;;;;5047971;28;20310;-42
2022/07/06 06:03:23;;;;;;;8.60;3.47;;;17.20;93.80;;;;;;5046787;28;20200;-41
2022/07/06 06:05:51;;;;;;;11.27;3.40;;;17.20;94.10;;;;;;5045804;28;20754;-41
2022/07/06 06:08:20;;;;;;;5.38;3.20;;;17.20;93.80;;;;;;5045831;28;20651;-41
2022/07/06 06:10:48;;;;;;;6.82;3.30;;;17.20;93.90;;;;;;5046994;28;20258;-41
2022/07/06 06:13:15;;;;;;;7.97;3.50;;;17.20;93.90;;;;;;5044531;28;20503;-41
2022/07/06 06:15:42;;;;;;;36.80;7.45;;;17.30;93.90;;;;;;5064262;28;20197;-41
2022/07/06 06:18:12;;;;;;;19.90;5.70;;;17.30;94.00;;;;;;5048869;28;20295;-41
2022/07/06 06:20:42;;;;;;;15.20;4.72;;;17.40;94.10;;;;;;5047343;28;20189;-41
2022/07/06 06:23:14;;;;;;;7.57;3.38;;;17.50;94.10;;;;;;5045651;28;20251;-41
2022/07/06 06:25:46;;;;;;;6.78;3.30;;;17.60;94.30;;;;;;5044674;28;20200;-42
2022/07/06 06:28:13;;;;;;;8.05;3.58;;;17.70;94.30;;;;;;5047739;28;20668;-41
2022/07/06 06:30:43;;;;;;;8.32;3.15;;;17.70;94.30;;;;;;5048368;28;20200;-42
2022/07/06 06:33:18;;;;;;;12.70;3.58;;;17.80;94.30;;;;;;5048286;28;20721;-41
2022/07/06 06:35:50;;;;;;;11.32;3.80;;;17.90;94.40;;;;;;5046569;28;20203;-40
2022/07/06 06:38:19;;;;;;;10.60;4.00;;;18.00;94.50;;;;;;5035660;28;20264;-43
2022/07/06 06:40:49;;;;;;;12.10;4.15;;;18.10;94.60;;;;;;5042836;28;20258;-43
2022/07/06 06:43:17;;;;;;;6.63;3.30;;;18.30;94.70;;;;;;5053573;28;20234;-43
2022/07/06 06:45:46;;;;;;;11.30;3.40;;;18.40;94.70;;;;;;5049249;28;20208;-41
2022/07/06 06:48:17;;;;;;;9.75;4.00;;;18.50;94.80;;;;;;5046222;28;20668;-40
2022/07/06 06:50:48;;;;;;;12.30;4.25;;;18.60;94.80;;;;;;5047737;28;20243;-40
2022/07/06 06:53:17;;;;;;;5.50;3.00;;;18.70;94.80;;;;;;5043254;28;20220;-41
2022/07/06 06:55:45;;;;;;;7.47;3.55;;;18.80;94.90;;;;;;5045034;28;20258;-43
2022/07/06 06:58:12;;;;;;;20.33;5.18;;;18.90;94.90;;;;;;5041567;28;20652;-43
2022/07/06 07:00:43;;;;;;;13.55;4.50;;;18.90;94.90;;;;;;5043259;28;20208;-41
2022/07/06 07:03:10;;;;;;;6.93;3.38;;;19.00;95.00;;;;;;5048088;28;20713;-41
2022/07/06 07:05:37;;;;;;;7.35;2.67;;;19.10;95.00;;;;;;5046598;28;20284;-41
2022/07/06 07:08:05;;;;;;;4.10;2.53;;;19.20;95.00;;;;;;5047256;28;20709;-44
2022/07/06 07:10:34;;;;;;;7.90;3.25;;;19.30;95.10;;;;;;5047805;28;20208;-42
2022/07/06 07:13:04;;;;;;;3.60;1.88;;;19.40;95.10;;;;;;5046327;28;20687;-43
2022/07/06 07:15:32;;;;;;;10.75;2.92;;;19.50;95.10;;;;;;5043364;28;20220;-41
2022/07/06 07:17:59;;;;;;;3.88;2.30;;;19.60;95.10;;;;;;5041055;28;20961;-44
2022/07/06 07:20:29;;;;;;;4.93;2.40;;;19.70;95.20;;;;;;5044832;28;20236;-43
2022/07/06 07:22:57;;;;;;;3.50;2.30;;;19.80;95.20;;;;;;5047054;28;20691;-43
2022/07/06 07:25:24;;;;;;;4.63;2.20;;;19.90;95.20;;;;;;5047197;28;20262;-41
2022/07/06 07:27:54;;;;;;;4.13;1.67;;;19.90;95.10;;;;;;5047590;28;20203;-43
2022/07/06 07:30:22;;;;;;;3.03;1.00;;;19.90;95.00;;;;;;5045886;28;20204;-44
2022/07/06 07:32:51;;;;;;;3.55;1.25;;;20.00;94.80;;;;;;5047945;28;20204;-43
2022/07/06 07:35:19;;;;;;;2.00;1.02;;;20.00;94.80;;;;;;5046025;28;20224;-43
2022/07/06 07:37:46;;;;;;;4.60;1.30;;;20.00;94.70;;;;;;5044386;28;20285;-42
2022/07/06 07:40:13;;;;;;;2.28;0.85;;;19.90;94.50;;;;;;5042074;28;20303;-43
2022/07/06 07:42:40;;;;;;;3.33;1.27;;;20.00;94.50;;;;;;5040391;28;20200;-42
2022/07/06 07:45:11;;;;;;;5.47;1.17;;;20.00;94.40;;;;;;5043515;28;20258;-42
2022/07/06 07:47:39;;;;;;;6.35;1.92;;;20.00;94.40;;;;;;5041903;28;20227;-42
2022/07/06 07:50:06;;;;;;;4.38;1.15;;;20.10;94.40;;;;;;5040575;28;20270;-42
2022/07/06 07:52:34;;;;;;;2.28;1.30;;;20.10;94.20;;;;;;5045063;28;20220;-43
2022/07/06 07:55:06;;;;;;;3.50;1.20;;;20.10;94.20;;;;;;5044172;28;20262;-42
2022/07/06 07:57:53;;;;;;;3.55;0.90;;;20.10;94.10;;;;;;5039572;28;20203;-42
2022/07/06 08:00:21;;;;;;;3.95;1.30;;;20.10;94.00;;;;;;5034791;28;20220;-43
2022/07/06 08:02:56;;;;;;;1.30;0.75;;;20.10;94.00;;;;;;5057390;28;20673;-43
2022/07/06 08:05:24;;;;;;;5.07;1.33;;;20.20;94.10;;;;;;5054348;28;20254;-36
2022/07/06 08:07:51;;;;;;;1.75;0.88;;;20.20;94.10;;;;;;5044068;28;20654;-35
2022/07/06 08:10:19;;;;;;;4.70;1.45;;;20.30;94.10;;;;;;5043595;28;20220;-36
2022/07/06 08:12:46;;;;;;;2.45;1.20;;;20.30;94.00;;;;;;5049196;28;20209;-35
2022/07/06 08:15:13;;;;;;;2.53;1.20;;;20.40;94.00;;;;;;5057486;28;20239;-36
2022/07/06 08:17:43;;;;;;;1.83;0.90;;;20.40;94.00;;;;;;5056259;28;20566;-35
2022/07/06 08:20:14;;;;;;;3.72;1.02;;;20.50;94.00;;;;;;5040464;28;20200;-36
2022/07/06 08:22:44;;;;;;;5.07;1.30;;;20.50;93.90;;;;;;5039006;28;20201;-35
2022/07/06 08:25:11;;;;;;;2.80;1.33;;;20.60;93.90;;;;;;5051010;28;20209;-35
2022/07/06 08:27:39;;;;;;;4.25;1.15;;;20.60;93.70;;;;;;5047204;28;20240;-36
2022/07/06 08:30:09;;;;;;;3.45;1.10;;;20.60;93.60;;;;;;5045298;28;20204;-35
2022/07/06 08:32:41;;;;;;;1.85;0.82;;;20.60;93.60;;;;;;5044803;28;20597;-35
2022/07/06 08:35:29;;;;;;;5.47;1.20;;;20.60;93.70;;;;;;5041804;28;20227;-35
2022/07/06 08:37:56;;;;;;;2.75;1.02;;;20.60;93.70;;;;;;5043220;28;20751;-35
2022/07/06 08:40:31;;;;;;;4.00;0.90;;;20.70;93.60;;;;;;5045750;28;20606;-35
2022/07/06 08:42:59;;;;;;;3.08;1.10;;;20.70;93.60;;;;;;5044014;28;20203;-35
2022/07/06 08:45:30;;;;;;;6.57;1.50;;;20.70;93.50;;;;;;5049429;28;20204;-35
2022/07/06 08:48:04;;;;;;;3.67;1.30;;;20.70;93.50;;;;;;5048078;28;20218;-35
2022/07/06 08:50:33;;;;;;;2.47;1.20;;;20.80;93.60;;;;;;5053749;28;20206;-35
2022/07/06 08:53:01;;;;;;;4.75;1.20;;;20.80;93.70;;;;;;5044382;28;20575;-35
2022/07/06 08:55:29;;;;;;;2.33;1.20;;;20.80;93.70;;;;;;5055437;28;20298;-35
2022/07/06 08:57:57;;;;;;;5.70;1.50;;;20.90;93.70;;;;;;5055290;28;20231;-35
2022/07/06 09:00:27;;;;;;;2.95;1.35;;;20.90;93.40;;;;;;5048137;28;20193;-33
2022/07/06 09:02:56;;;;;;;3.25;1.00;;;20.90;93.60;;;;;;5047141;28;20239;-32
2022/07/06 09:05:26;;;;;;;3.45;1.33;;;21.00;93.70;;;;;;5049555;28;20216;-35
2022/07/06 09:07:53;;;;;;;4.90;1.10;;;21.10;93.80;;;;;;5040753;28;20786;-35
2022/07/06 09:10:26;;;;;;;2.40;1.10;;;21.10;93.80;;;;;;5049812;28;20290;-33
2022/07/06 09:13:03;;;;;;;4.38;1.02;;;21.20;93.80;;;;;;5045925;28;20208;-33
2022/07/06 09:15:30;;;;;;;3.15;1.00;;;21.20;93.90;;;;;;5044723;28;20299;-33
2022/07/06 09:18:00;;;;;;;3.10;0.98;;;21.30;94.00;;;;;;5035767;28;20200;-33
2022/07/06 09:20:28;;;;;;;3.15;1.08;;;21.30;94.00;;;;;;5045354;28;20216;-32
2022/07/06 09:23:00;;;;;;;3.72;1.27;;;21.40;94.00;;;;;;5047658;28;20200;-39
2022/07/06 09:25:33;;;;;;;2.53;1.10;;;21.50;93.90;;;;;;5049619;28;20208;-39
2022/07/06 09:28:01;;;;;;;1.90;1.00;;;21.50;93.90;;;;;;5050033;28;20546;-39
2022/07/06 09:30:29;;;;;;;2.67;1.25;;;21.60;94.00;;;;;;5046066;28;20595;-39
2022/07/06 09:32:58;;;;;;;9.07;1.98;;;21.60;94.00;;;;;;5043687;28;20227;-39
2022/07/06 09:35:29;;;;;;;3.00;1.15;;;21.70;94.00;;;;;;5028790;28;20213;-39
2022/07/06 09:38:13;;;;;;;3.08;0.95;;;21.70;94.00;;;;;;5046683;28;20232;-39
2022/07/06 09:40:45;;;;;;;4.80;1.15;;;21.80;94.10;;;;;;5048029;28;20204;-39
2022/07/06 09:43:18;;;;;;;3.47;1.60;;;21.80;94.10;;;;;;5029669;28;20193;-39
2022/07/06 09:45:47;;;;;;;2.28;0.90;;;21.90;93.90;;;;;;5048304;28;20254;-37
2022/07/06 09:48:18;;;;;;;6.28;1.98;;;21.90;94.00;;;;;;5046092;28;20253;-37
2022/07/06 09:50:50;;;;;;;8.63;1.75;;;22.00;94.00;;;;;;5021273;28;20253;-39
2022/07/06 09:53:19;;;;;;;5.50;1.20;;;22.00;94.10;;;;;;5044869;28;20201;-39
2022/07/06 09:55:53;;;;;;;4.43;1.23;;;22.10;94.20;;;;;;5046723;28;20278;-39
2022/07/06 09:58:22;;;;;;;2.55;0.85;;;22.20;94.00;;;;;;5047047;28;20192;-37
2022/07/06 10:01:10;;;;;;;1.70;0.70;;;22.30;94.00;;;;;;5034965;28;20208;-40
2022/07/06 10:03:38;;;;;;;1.80;0.80;;;22.30;94.00;;;;;;5044444;28;20572;-40
2022/07/06 10:06:06;;;;;;;2.50;1.02;;;22.30;93.90;;;;;;5042869;28;20204;-39
2022/07/06 10:08:36;;;;;;;2.28;0.88;;;22.40;94.00;;;;;;5033205;28;20303;-39
2022/07/06 10:11:03;;;;;;;2.38;1.05;;;22.40;93.90;;;;;;5048352;28;20658;-39
2022/07/06 10:13:34;;;;;;;2.65;1.00;;;22.40;94.00;;;;;;5048602;28;20202;-39
2022/07/06 10:16:04;;;;;;;2.42;1.15;;;22.50;94.00;;;;;;5049231;28;20251;-40
2022/07/06 10:18:32;;;;;;;3.38;1.35;;;22.50;93.90;;;;;;5049110;28;20196;-39
2022/07/06 10:21:01;;;;;;;3.70;1.02;;;22.50;93.70;;;;;;5048415;28;20298;-39
2022/07/06 10:23:29;;;;;;;1.75;0.98;;;22.50;93.70;;;;;;5048575;28;20208;-37
2022/07/06 10:25:58;;;;;;;2.90;1.10;;;22.50;93.70;;;;;;5048772;28;20211;-39
2022/07/06 10:28:28;;;;;;;3.15;1.05;;;22.60;93.80;;;;;;5047216;28;20295;-39
2022/07/06 10:30:55;;;;;;;3.47;1.00;;;22.60;93.80;;;;;;5048648;28;20223;-37
2022/07/06 10:33:25;;;;;;;1.80;1.00;;;22.60;93.70;;;;;;5048416;28;20204;-39
2022/07/06 10:35:57;;;;;;;6.25;1.08;;;22.70;93.70;;;;;;5047664;28;20369;-39
2022/07/06 10:38:32;;;;;;;6.57;1.27;;;22.70;93.70;;;;;;5048358;28;20236;-39
2022/07/06 10:41:07;;;;;;;3.47;1.70;;;22.80;93.60;;;;;;5048355;28;20203;-35
2022/07/06 10:43:36;;;;;;;4.15;0.98;;;22.80;93.30;;;;;;5048319;28;20191;-35
2022/07/06 10:46:15;;;;;;;2.70;1.38;;;22.80;93.50;;;;;;5048159;28;20212;-36
2022/07/06 10:48:44;;;;;;;10.02;2.03;;;22.90;93.50;;;;;;5048174;28;20682;-35
2022/07/06 10:51:23;;;;;;;8.20;1.33;;;22.90;93.60;;;;;;5035039;28;20667;-35
2022/07/06 10:54:03;;;;;;;3.20;1.15;;;22.90;93.60;;;;;;5028367;28;20263;-35
2022/07/06 10:56:42;;;;;;;3.00;1.35;;;23.00;93.70;;;;;;5047646;28;20204;-35
2022/07/06 10:59:13;;;;;;;3.28;1.20;;;23.00;93.40;;;;;;5048331;28;20204;-36
2022/07/06 11:01:40;;;;;;;2.75;0.82;;;23.10;93.60;;;;;;5048352;28;20299;-36
2022/07/06 11:04:19;;;;;;;1.90;1.00;;;23.10;93.50;;;;;;5048160;28;20247;-35
2022/07/06 11:06:47;;;;;;;2.20;1.15;;;23.10;93.50;;;;;;5047526;28;20239;-40
2022/07/06 11:09:15;;;;;;;2.05;1.30;;;23.10;93.80;;;;;;5047359;28;20611;-39
2022/07/06 11:11:45;;;;;;;3.47;1.10;;;23.10;93.60;;;;;;5040186;28;20209;-40
2022/07/06 11:14:15;;;;;;;2.10;0.95;;;23.20;93.70;;;;;;5028613;28;20247;-39
2022/07/06 11:16:48;;;;;;;2.97;1.30;;;23.30;93.60;;;;;;5059507;28;20225;-39
2022/07/06 11:19:26;;;;;;;3.25;1.02;;;23.30;93.60;;;;;;5043670;28;20196;-39
2022/07/06 11:22:04;;;;;;;2.40;1.10;;;23.30;93.80;;;;;;5047449;28;20216;-39
2022/07/06 11:24:33;;;;;;;2.28;1.00;;;23.30;93.30;;;;;;5046643;28;20291;-39
2022/07/06 11:27:04;;;;;;;5.40;1.85;;;23.30;93.30;;;;;;5030051;28;20603;-40
2022/07/06 11:29:32;;;;;;;1.83;0.90;;;23.30;93.40;;;;;;5034068;28;20212;-39
2022/07/06 11:32:03;;;;;;;1.98;1.50;;;23.40;93.40;;;;;;5034667;28;20675;-40
2022/07/06 11:34:33;;;;;;;3.10;1.13;;;23.40;93.30;;;;;;5047996;28;20204;-39
2022/07/06 11:37:04;;;;;;;1.67;1.13;;;23.40;93.20;;;;;;5047139;28;20319;-39
2022/07/06 11:39:35;;;;;;;3.10;1.33;;;23.40;93.20;;;;;;5048362;28;20311;-39
2022/07/06 11:42:04;;;;;;;3.92;1.60;;;23.40;93.20;;;;;;5047708;28;20226;-39
2022/07/06 11:44:32;;;;;;;3.92;1.40;;;23.40;93.10;;;;;;5047925;28;20242;-39
2022/07/06 11:47:06;;;;;;;2.90;1.50;;;23.40;93.30;;;;;;5042914;28;20771;-39
2022/07/06 11:49:34;;;;;;;3.53;1.48;;;23.50;93.10;;;;;;5027045;28;20204;-39
2022/07/06 11:52:15;;;;;;;2.50;1.30;;;23.50;93.10;;;;;;5033289;28;20223;-39
2022/07/06 11:54:47;;;;;;;3.83;1.30;;;23.50;93.20;;;;;;5045979;28;20231;-39
2022/07/06 11:57:17;;;;;;;5.72;1.40;;;23.50;93.30;;;;;;5047322;28;20209;-40
2022/07/06 11:59:46;;;;;;;5.78;1.98;;;23.60;93.20;;;;;;5047740;28;20678;-39
2022/07/06 12:02:17;;;;;;;6.13;1.75;;;23.60;93.30;;;;;;5047704;28;20575;-39
2022/07/06 12:04:46;;;;;;;4.00;1.73;;;23.70;93.20;;;;;;5046862;28;20189;-37
2022/07/06 12:07:16;;;;;;;3.30;1.27;;;23.70;93.10;;;;;;5047265;28;20727;-37
2022/07/06 12:09:46;;;;;;;5.38;1.65;;;23.70;93.30;;;;;;5048244;28;20211;-39
2022/07/06 12:12:19;;;;;;;5.28;1.55;;;23.80;93.30;;;;;;5050905;28;20258;-37
2022/07/06 12:14:46;;;;;;;3.00;1.35;;;23.90;93.50;;;;;;5051089;28;20714;-39
2022/07/06 12:17:15;;;;;;;2.17;1.33;;;23.90;93.40;;;;;;5050561;28;20201;-39
2022/07/06 12:19:43;;;;;;;3.15;1.52;;;24.00;93.50;;;;;;5049229;28;20659;-37
2022/07/06 12:22:11;;;;;;;2.65;1.48;;;24.00;93.40;;;;;;5050703;28;20212;-39
2022/07/06 12:24:46;;;;;;;3.65;1.23;;;24.10;93.20;;;;;;5051294;28;20283;-39
2022/07/06 12:27:19;;;;;;;4.63;1.80;;;24.10;93.20;;;;;;5050622;28;20204;-37
2022/07/06 12:29:48;;;;;;;2.10;1.30;;;24.10;93.20;;;;;;5050969;28;20600;-39
2022/07/06 12:32:17;;;;;;;4.45;1.67;;;24.10;93.30;;;;;;5050953;28;20339;-37
2022/07/06 12:34:47;;;;;;;4.10;1.58;;;24.20;93.30;;;;;;5050717;28;20224;-37
2022/07/06 12:37:15;;;;;;;4.72;2.00;;;24.20;93.30;;;;;;5050770;28;20294;-37
2022/07/06 12:39:47;;;;;;;4.65;1.70;;;24.20;93.20;;;;;;5050844;28;20912;-39
2022/07/06 12:42:17;;;;;;;4.15;1.95;;;24.30;93.10;;;;;;5050768;28;20216;-37
2022/07/06 12:44:47;;;;;;;4.20;1.42;;;24.20;93.10;;;;;;5050759;28;20250;-33
2022/07/06 12:47:23;;;;;;;3.60;1.58;;;24.30;93.20;;;;;;5043683;28;20611;-33
2022/07/06 12:50:09;;;;;;;2.40;1.40;;;24.30;93.10;;;;;;5030263;28;20715;-33
2022/07/06 12:52:39;;;;;;;3.55;1.80;;;24.30;93.00;;;;;;5030690;28;20197;-33
2022/07/06 12:55:12;;;;;;;4.75;1.75;;;24.30;93.20;;;;;;5049185;28;20311;-34
2022/07/06 12:57:48;;;;;;;3.78;1.80;;;24.30;93.10;;;;;;5049970;28;20253;-34
2022/07/06 13:00:16;;;;;;;3.55;2.10;;;24.30;93.20;;;;;;5050415;28;20235;-34